createdAt,value
2023-05-14T00:00:53.781Z,37.55
2023-05-14T00:01:57.483Z,37.78
2023-05-14T00:03:01.300Z,37.80
2023-05-14T00:04:05.292Z,37.82
2023-05-14T00:05:10.011Z,37.78
2023-05-14T00:06:13.803Z,37.85
2023-05-14T00:07:17.490Z,37.83
2023-05-14T00:08:21.131Z,37.88
2023-05-14T00:09:24.770Z,37.84
2023-05-14T00:10:28.769Z,37.89
2023-05-14T00:11:32.438Z,37.91
2023-05-14T00:12:36.170Z,37.88
2023-05-14T00:13:41.547Z,37.90
2023-05-14T00:14:45.225Z,37.93
2023-05-14T00:15:48.951Z,37.91
2023-05-14T00:16:52.814Z,37.93
2023-05-14T00:17:56.573Z,37.96
2023-05-14T00:19:00.369Z,37.92
2023-05-14T00:20:04.552Z,37.94
2023-05-14T00:21:08.243Z,37.99
2023-05-14T00:22:12.429Z,37.95
2023-05-14T00:23:16.176Z,37.87
2023-05-14T00:24:19.835Z,37.85
2023-05-14T00:25:23.642Z,37.92
2023-05-14T00:26:27.272Z,38.01
2023-05-14T00:27:30.974Z,38.03
2023-05-14T00:28:37.612Z,38.02
2023-05-14T00:29:43.118Z,38.06
2023-05-14T00:30:46.893Z,38.09
2023-05-14T00:31:50.672Z,37.87
2023-05-14T00:32:54.502Z,38.11
2023-05-14T00:33:58.167Z,38.06
2023-05-14T00:35:02.006Z,38.05
2023-05-14T00:36:06.017Z,38.03
2023-05-14T00:37:09.837Z,38.04
2023-05-14T00:38:13.558Z,38.11
2023-05-14T00:39:17.238Z,38.01
2023-05-14T00:40:21.636Z,38.17
2023-05-14T00:41:25.460Z,38.11
2023-05-14T00:42:29.225Z,38.17
2023-05-14T00:43:32.898Z,38.19
2023-05-14T00:44:37.105Z,38.19
2023-05-14T00:45:42.489Z,38.16
2023-05-14T00:46:46.404Z,38.18
2023-05-14T00:47:50.530Z,38.13
2023-05-14T00:48:54.672Z,38.21
2023-05-14T00:49:58.486Z,38.21
2023-05-14T00:51:02.198Z,38.23
2023-05-14T00:52:06.390Z,38.21
2023-05-14T00:53:11.048Z,38.25
2023-05-14T00:54:15.515Z,38.02
2023-05-14T00:55:19.971Z,38.19
2023-05-14T00:56:23.978Z,38.10
2023-05-14T00:57:27.968Z,38.25
2023-05-14T00:58:31.773Z,38.18
2023-05-14T00:59:35.931Z,38.23
2023-05-14T01:00:41.989Z,37.55
2023-05-14T01:01:45.946Z,38.33
2023-05-14T01:02:49.709Z,38.34
2023-05-14T01:03:53.733Z,38.30
2023-05-14T01:04:57.716Z,38.27
2023-05-14T01:06:11.065Z,38.19
2023-05-14T01:07:21.819Z,38.27
2023-05-14T01:08:33.741Z,38.37
2023-05-14T01:09:43.594Z,38.40
2023-05-14T01:10:53.089Z,38.33
2023-05-14T01:12:02.576Z,38.27
2023-05-14T01:13:22.817Z,38.19
2023-05-14T01:14:38.506Z,38.27
2023-05-14T01:15:45.355Z,38.37
2023-05-14T01:16:51.140Z,38.40
2023-05-14T01:17:58.818Z,38.44
2023-05-14T01:19:03.632Z,38.40
2023-05-14T01:20:09.216Z,38.26
2023-05-14T01:21:45.206Z,38.31
2023-05-14T01:22:48.949Z,38.33
2023-05-14T01:23:52.653Z,38.39
2023-05-14T01:24:56.424Z,38.37
2023-05-14T01:26:00.148Z,38.29
2023-05-14T01:27:11.585Z,38.21
2023-05-14T01:28:19.276Z,38.33
2023-05-14T01:29:25.383Z,38.44
2023-05-14T01:30:32.616Z,38.48
2023-05-14T01:31:40.036Z,38.55
2023-05-14T01:32:47.718Z,38.61
2023-05-14T01:33:52.929Z,38.64
2023-05-14T01:34:59.198Z,38.61
2023-05-14T01:36:06.653Z,38.64
2023-05-14T01:37:13.764Z,38.53
2023-05-14T01:38:20.266Z,38.53
2023-05-14T01:39:25.789Z,38.61
2023-05-14T01:40:30.562Z,38.53
2023-05-14T01:41:34.785Z,38.57
2023-05-14T01:42:39.253Z,38.61
2023-05-14T01:43:43.140Z,38.63
2023-05-14T01:44:47.192Z,38.62
2023-05-14T01:45:50.998Z,38.71
2023-05-14T01:46:54.803Z,38.69
2023-05-14T01:47:58.890Z,38.71
2023-05-14T01:49:02.780Z,38.70
2023-05-14T01:50:07.296Z,38.76
2023-05-14T01:51:10.931Z,38.76
2023-05-14T01:52:16.244Z,38.64
2023-05-14T01:53:19.988Z,38.81
2023-05-14T01:54:23.769Z,38.73
2023-05-14T01:55:27.468Z,38.81
2023-05-14T01:56:31.148Z,38.78
2023-05-14T01:57:34.820Z,38.85
2023-05-14T01:58:38.441Z,38.88
2023-05-14T01:59:42.095Z,38.80
2023-05-14T02:00:45.837Z,38.78
2023-05-14T15:53:21.553Z,36.15
2023-05-14T15:54:25.280Z,36.14
2023-05-14T15:55:29.016Z,36.16
2023-05-14T15:56:32.787Z,36.15
2023-05-14T15:57:36.543Z,36.17
2023-05-14T15:58:40.419Z,36.15
2023-05-14T15:59:44.315Z,36.16
2023-05-14T16:00:47.950Z,36.17
2023-05-14T16:01:52.193Z,36.14
2023-05-14T16:02:55.959Z,36.04
2023-05-14T16:03:59.781Z,36.17
2023-05-14T16:05:03.645Z,36.07
2023-05-14T16:06:07.844Z,36.10
2023-05-14T16:07:12.001Z,36.20
2023-05-14T16:08:17.904Z,36.09
2023-05-14T16:09:23.230Z,36.22
2023-05-14T16:10:27.288Z,36.17
2023-05-14T16:11:31.838Z,36.24
2023-05-14T16:12:35.612Z,36.21
2023-05-14T16:13:39.443Z,36.26
2023-05-14T16:14:43.124Z,36.26
2023-05-14T16:15:46.918Z,36.10
2023-05-14T16:16:50.935Z,35.91
2023-05-14T16:17:54.896Z,36.25
2023-05-14T16:18:58.698Z,36.24
2023-05-14T16:20:02.517Z,36.05
2023-05-14T16:21:06.289Z,36.16
2023-05-14T16:22:10.004Z,36.08
2023-05-14T16:23:13.707Z,36.12
2023-05-14T16:24:19.195Z,35.97
2023-05-14T16:25:24.589Z,36.11
2023-05-14T16:26:28.368Z,36.09
2023-05-14T16:27:32.220Z,36.06
2023-05-14T16:28:38.228Z,36.12
2023-05-14T16:29:42.045Z,36.14
2023-05-14T16:30:45.853Z,36.14
2023-05-14T16:31:49.706Z,36.13
2023-05-14T16:32:53.597Z,36.11
2023-05-14T16:33:57.340Z,36.13
2023-05-14T16:35:01.067Z,36.13
2023-05-14T16:36:07.746Z,36.08
2023-05-14T16:37:13.137Z,36.10
2023-05-14T16:38:17.407Z,36.07
2023-05-14T16:39:23.375Z,36.03
2023-05-14T16:40:31.784Z,36.05
2023-05-14T16:41:37.708Z,36.05
2023-05-14T16:42:41.543Z,35.99
2023-05-14T16:43:45.259Z,36.10
2023-05-14T16:44:49.030Z,36.16
2023-05-14T16:45:52.783Z,36.19
2023-05-14T16:46:57.218Z,36.19
2023-05-14T16:48:01.101Z,36.04
2023-05-14T16:49:05.079Z,36.23
2023-05-14T16:50:09.476Z,36.25
2023-05-14T16:51:13.178Z,36.26
2023-05-14T16:52:16.881Z,36.26
2023-05-14T16:53:20.700Z,36.26
2023-05-14T16:54:24.475Z,36.28
2023-05-14T16:55:30.009Z,36.27
2023-05-14T16:56:33.672Z,36.29
2023-05-14T16:57:37.360Z,36.29
2023-05-14T16:58:41.066Z,35.98
2023-05-14T16:59:47.623Z,36.16
2023-05-14T17:00:51.440Z,36.22
2023-05-14T17:01:56.078Z,36.28
2023-05-14T17:03:02.079Z,36.25
2023-05-14T17:04:05.843Z,36.29
2023-05-14T17:05:13.520Z,36.32
2023-05-14T17:06:17.308Z,36.30
2023-05-14T17:07:21.081Z,36.26
2023-05-14T17:08:24.809Z,36.23
2023-05-14T17:09:28.596Z,36.32
2023-05-14T17:10:33.960Z,36.35
2023-05-14T17:11:37.679Z,36.36
2023-05-14T17:12:41.366Z,36.35
2023-05-14T17:13:45.744Z,36.18
2023-05-14T17:14:49.451Z,36.30
2023-05-14T17:15:53.196Z,36.30
2023-05-14T17:16:56.909Z,36.33
2023-05-14T17:18:00.765Z,36.25
2023-05-14T17:19:07.665Z,35.44
2023-05-14T17:20:13.643Z,36.06
2023-05-14T17:21:20.931Z,36.22
2023-05-14T17:22:24.548Z,36.26
2023-05-14T17:23:28.235Z,36.28
2023-05-14T17:24:31.962Z,36.12
2023-05-14T17:25:37.303Z,36.30
2023-05-14T17:26:41.042Z,36.23
2023-05-14T17:27:46.697Z,36.30
2023-05-14T17:28:50.276Z,36.31
2023-05-14T17:29:53.964Z,36.21
2023-05-14T17:31:00.380Z,36.10
2023-05-14T17:32:13.616Z,36.17
2023-05-14T17:33:17.395Z,36.27
2023-05-14T17:34:21.254Z,36.17
2023-05-14T17:35:25.207Z,36.28
2023-05-14T17:36:29.010Z,36.25
2023-05-14T17:37:32.707Z,36.20
2023-05-14T17:38:36.736Z,36.26
2023-05-14T17:39:40.398Z,36.27
2023-05-14T17:40:45.698Z,35.98
2023-05-14T17:41:49.383Z,36.24
2023-05-14T17:42:53.236Z,36.19
2023-05-14T17:43:56.932Z,36.13
2023-05-14T17:45:00.628Z,35.97
2023-05-14T17:46:04.345Z,36.24
2023-05-14T17:47:08.501Z,36.01
2023-05-14T17:48:12.338Z,35.90
2023-05-14T17:49:16.040Z,35.74
2023-05-14T17:50:19.938Z,36.11
2023-05-14T17:51:23.596Z,36.19
2023-05-14T17:52:27.416Z,36.21
2023-05-14T17:53:31.130Z,35.64
2023-05-14T17:54:34.861Z,36.18
2023-05-14T17:55:38.572Z,36.09
2023-05-14T17:56:44.031Z,36.20
2023-05-14T17:57:48.235Z,36.13
2023-05-14T17:58:51.965Z,36.19
2023-05-14T17:59:55.616Z,36.20
2023-05-14T18:00:59.331Z,36.32
2023-05-14T18:02:03.030Z,36.26
2023-05-14T18:03:06.878Z,36.28
2023-05-14T18:04:10.655Z,36.32
2023-05-14T18:05:14.423Z,36.31
2023-05-14T18:06:18.090Z,36.22
2023-05-14T18:07:21.797Z,36.23
2023-05-14T18:08:25.512Z,36.22
2023-05-14T18:09:29.233Z,36.29
2023-05-14T18:10:33.205Z,36.29
2023-05-14T18:11:36.975Z,36.29
2023-05-14T18:12:42.339Z,36.14
2023-05-14T18:13:46.209Z,36.20
2023-05-14T18:14:49.937Z,36.01
2023-05-14T18:15:54.191Z,36.33
2023-05-14T18:16:57.986Z,36.34
2023-05-14T18:18:01.836Z,36.25
2023-05-14T18:19:06.000Z,36.01
2023-05-14T18:20:10.574Z,36.19
2023-05-14T18:21:14.294Z,36.26
2023-05-14T18:22:18.007Z,36.31
2023-05-14T18:23:21.661Z,36.33
2023-05-14T18:24:25.294Z,36.37
2023-05-14T18:25:29.353Z,36.37
2023-05-14T18:26:34.354Z,36.26
2023-05-14T18:27:38.173Z,36.37
2023-05-14T18:28:43.611Z,36.33
2023-05-14T18:29:47.299Z,36.30
2023-05-14T18:30:50.957Z,36.36
2023-05-14T18:31:54.691Z,36.17
2023-05-14T18:32:58.368Z,36.32
2023-05-14T18:34:01.995Z,36.30
2023-05-14T18:35:08.003Z,36.14
2023-05-14T18:36:12.229Z,36.25
2023-05-14T18:37:16.071Z,36.18
2023-05-14T18:38:19.805Z,36.11
2023-05-14T18:39:23.446Z,36.27
2023-05-14T18:40:27.095Z,36.32
2023-05-14T18:41:30.738Z,36.36
2023-05-14T18:42:34.472Z,36.07
2023-05-14T18:43:38.172Z,36.41
2023-05-14T18:44:43.545Z,36.42
2023-05-14T18:45:47.617Z,36.43
2023-05-14T18:46:51.337Z,36.39
2023-05-14T18:47:55.857Z,36.15
2023-05-14T18:48:59.536Z,36.42
2023-05-14T18:50:03.240Z,36.41
2023-05-14T18:51:07.012Z,36.32
2023-05-14T18:52:10.743Z,36.42
2023-05-14T18:53:14.396Z,36.40
2023-05-14T18:54:18.119Z,36.39
2023-05-14T18:55:21.922Z,36.40
2023-05-14T18:56:25.680Z,36.24
2023-05-14T18:57:29.410Z,36.37
2023-05-14T18:58:33.437Z,36.20
2023-05-14T18:59:37.153Z,36.19
2023-05-14T19:00:42.598Z,36.20
2023-05-14T19:01:46.320Z,36.36
2023-05-14T19:02:50.157Z,36.36
2023-05-14T19:03:54.278Z,36.43
2023-05-14T19:04:58.128Z,36.35
2023-05-14T19:06:01.927Z,36.42
2023-05-14T19:07:05.869Z,36.28
2023-05-14T19:08:09.504Z,36.37
2023-05-14T19:09:13.209Z,36.32
2023-05-14T19:10:16.883Z,36.32
2023-05-14T19:11:20.593Z,36.38
2023-05-14T19:12:24.233Z,36.39
2023-05-14T19:13:27.932Z,36.28
2023-05-14T19:14:31.640Z,36.42
2023-05-14T19:15:35.377Z,36.44
2023-05-14T19:16:41.417Z,36.44
2023-05-14T19:17:45.197Z,36.28
2023-05-14T19:18:49.067Z,36.42
2023-05-14T19:19:52.859Z,36.44
2023-05-14T19:20:56.497Z,36.45
2023-05-14T19:22:00.188Z,36.45
2023-05-14T19:23:03.930Z,36.39
2023-05-14T19:24:07.940Z,36.37
2023-05-14T19:25:12.051Z,36.44
2023-05-14T19:26:15.734Z,36.44
2023-05-14T19:27:19.502Z,36.37
2023-05-14T19:28:23.352Z,36.40
2023-05-14T19:29:27.051Z,36.37
2023-05-14T19:30:30.682Z,36.27
2023-05-14T19:31:34.413Z,36.28
2023-05-14T19:32:39.905Z,36.18
2023-05-14T19:33:43.766Z,36.37
2023-05-14T19:34:48.406Z,36.38
2023-05-14T19:35:53.243Z,36.41
2023-05-14T19:36:57.006Z,36.37
2023-05-14T19:38:00.770Z,36.42
2023-05-14T19:39:04.600Z,36.34
2023-05-14T19:40:09.481Z,36.43
2023-05-14T19:41:13.494Z,36.20
2023-05-14T19:42:17.404Z,36.39
2023-05-14T19:43:21.153Z,36.38
2023-05-14T19:44:25.009Z,36.42
2023-05-14T19:45:28.824Z,36.35
2023-05-14T19:46:32.663Z,36.45
2023-05-14T19:47:36.556Z,36.43
2023-05-14T19:48:44.498Z,36.46
2023-05-14T19:49:48.493Z,36.48
2023-05-14T19:50:52.287Z,36.47
2023-05-14T19:51:56.089Z,36.42
2023-05-14T19:52:59.756Z,36.47
2023-05-14T19:54:03.520Z,36.46
2023-05-14T19:55:07.617Z,36.45
2023-05-14T19:56:11.250Z,36.30
2023-05-14T19:57:17.345Z,36.42
2023-05-14T19:58:21.069Z,36.41
2023-05-14T19:59:24.765Z,36.44
2023-05-14T20:01:39.552Z,36.10
2023-05-14T20:02:43.339Z,36.42
2023-05-14T20:03:49.039Z,36.32
2023-05-14T20:04:52.713Z,36.41
2023-05-14T20:06:02.984Z,36.40
